Station: Kyabram  

  Atmospheric Gas Attenuation - ITU Rec 676-11   ----------------- dB/100km -----------------
Date Time Temp RH % AH g/m3 Dew Point Wind Direction Speed kph Gust kph Barometer mB Rainfall Since 9am 24GHz 47GHz 76GHz 122GHz 134GHz 241GHz
08/05 12:30 16.8 65 9.29 10.2 19 32 1013.1 0 20.9 26.1 41.0 107.7 103.5 356.8
08/05 12:20 16.8 64 9.15 10 22 35 1013.1 0 20.6 25.9 40.5 106.3 101.7 350.5
08/05 12:10 16.7 65 9.24 10.1 17 26 1013.1 0 20.8 26.1 40.9 107.3 103.0 355.0
08/05 12:00 16.2 68 9.38 10.3 15 26 1013.1 0 21.1 26.4 41.7 109.5 105.5 363.7
08/05 11:50 16.3 68 9.43 10.4 22 30 1013.1 0 21.2 26.5 41.8 109.9 106.0 365.5
08/05 11:40 16 69 9.4 10.3 13 15 1013.1 0 21.2 26.5 41.9 110.0 106.0 365.5
08/05 11:30 15.9 69 9.34 10.2 17 32 1013.1 0 21.1 26.5 41.7 109.5 105.4 363.2
08/05 11:20 16.3 70 9.71 10.8 20 28 1013.1 0 21.8 26.9 43.0 112.9 109.7 378.5
08/05 11:10 15.8 75 10.1 11.4 15 20 1013.1 0 22.7 27.7 44.8 117.9 115.7 399.3
08/05 11:00 15 76 9.75 10.8 17 26 1013.1 0 22.0 27.4 43.8 115.2 112.1 386.7
08/05 10:50 14.7 80 10.07 11.3 11 13 1013.1 0 22.7 28.0 45.3 119.2 116.9 403.5
08/05 10:40 14.5 80 9.95 11.1 15 19 1013.1 0 22.4 27.9 44.9 118.2 115.6 398.8
08/05 10:30 14.3 79 9.71 10.7 17 28 1013.1 0 21.9 27.6 44.1 115.8 112.6 388.3
08/05 10:20 14.9 79 10.07 11.3 17 22 1013.1 0 22.7 28.0 45.2 118.9 116.6 402.5
08/05 10:10 14.2 82 10.01 11.2 17 24 1013.1 0 22.6 28.1 45.4 119.3 116.9 403.2
08/05 10:00 13.7 83 9.83 10.9 17 30 1013.1 0 22.2 28.0 44.9 118.1 115.2 397.1
08/05 09:50 13.5 84 9.83 10.9 17 24 1013.1 0 22.2 28.0 45.0 118.4 115.5 398.1
08/05 09:40 13.4 85 9.88 10.9 15 19 1013.1 0 22.4 28.1 45.3 119.1 116.3 401.0
08/05 09:30 13.1 85 9.7 10.6 15 26 1013.1 0 22.0 27.9 44.7 117.5 114.2 393.8
08/05 09:20 12.9 86 9.69 10.6 17 22 1013.1 0 22.0 28.0 44.8 117.7 114.4 394.4
08/05 09:10 12.9 89 10.03 11.1 15 22 1013.1 0 22.7 28.6 46.2 121.6 119.2 411.0
08/05 09:00 12.3 90 9.77 10.7 15 24 1013.1 0 22.2 28.3 45.5 119.5 116.4 401.4
08/05 08:50 12.1 91 9.76 10.7 13 24 1013.1 0 22.2 28.3 45.5 119.7 116.6 401.9
08/05 08:40 11.8 93 9.79 10.7 17 24 1013.1 0 22.2 28.5 45.8 120.5 117.5 405.0
08/05 08:30 11.5 95 9.81 10.7 15 24 1013.1 0 22.3 28.6 46.1 121.2 118.2 407.5
08/05 08:20 11.2 96 9.73 10.6 13 15 1013.1 0 22.2 28.6 45.9 120.8 117.6 405.1
08/05 08:10 10.8 97 9.59 10.3 17 20 1013.1 0 21.9 28.5 45.6 119.8 116.2 400.2
08/05 08:00 10.6 98 9.57 10.3 15 28 1013.1 0 21.8 28.5 45.6 119.9 116.2 400.3
08/05 07:50 10.4 99 9.54 10.2 13 17 1013.1 0 21.8 28.5 45.6 119.8 116.1 399.8
08/05 07:40 10 99 9.3 9.9 22 28 1013.1 0 21.3 28.2 44.8 117.6 113.2 389.9
08/05 07:30 9.8 99 9.19 9.7 17 24 1013.1 0 21.1 28.1 44.4 116.7 112.0 385.4
08/05 07:20 9.5 99 9.01 9.4 19 22 1013.1 0 20.7 27.9 43.8 115.0 109.8 377.9
08/05 07:10 9.4 99 8.96 9.3 19 24 1013.1 0 20.6 27.8 43.6 114.6 109.3 375.9
08/05 07:00 9.2 99 8.84 9.1 15 24 1013.1 0 20.3 27.7 43.2 113.5 107.8 370.9
08/05 06:50 9.1 98 8.7 8.8 15 20 1013.1 0 20.0 27.5 42.7 112.1 106.0 364.4
08/05 06:40 9.2 98 8.75 8.9 15 17 1013.1 0 20.1 27.5 42.8 112.5 106.6 366.4
08/05 06:30 9.2 97 8.66 8.7 11 17 1013.1 0 19.9 27.4 42.4 111.5 105.3 362.0
08/05 06:20 9.3 98 8.81 9 17 19 1013.1 0 20.3 27.6 43.0 113.0 107.3 368.9
08/05 06:10 9.3 97 8.72 8.8 11 15 1013.1 0 20.1 27.4 42.6 112.0 106.0 364.5
08/05 06:00 9.2 98 8.75 8.9 13 22 1013.1 0 20.1 27.5 42.8 112.5 106.6 366.4
08/05 05:50 9.1 97 8.61 8.6 9 11 1013.1 0 19.8 27.3 42.3 111.0 104.7 360.0
08/05 05:40 9.1 97 8.61 8.6 15 20 1013.1 0 19.8 27.3 42.3 111.0 104.7 360.0
08/05 05:30 9.1 97 8.61 8.6 13 20 1013.1 0 19.8 27.3 42.3 111.0 104.7 360.0
08/05 05:20 9.2 98 8.75 8.9 15 19 1013.1 0 20.1 27.5 42.8 112.5 106.6 366.4
08/05 05:10 9 98 8.64 8.7 11 13 1013.1 0 19.9 27.4 42.5 111.5 105.3 361.9
08/05 05:00 8.8 97 8.45 8.4 11 15 1013.1 0 19.5 27.1 41.8 109.6 102.9 353.5
08/05 04:50 8.9 98 8.59 8.6 13 19 1013.1 0 19.8 27.3 42.3 111.1 104.7 359.9
08/05 04:40 8.7 96 8.31 8.1 13 15 1013.1 0 19.2 26.9 41.2 108.2 101.0 347.1
08/05 04:30 8.7 95 8.22 7.9 11 17 1013.1 0 19.0 26.8 40.8 107.1 99.8 342.6
08/05 04:20 9 95 8.38 8.2 11 15 1013.1 0 19.4 27.0 41.3 108.5 101.6 349.1
08/05 04:10 9 94 8.29 8.1 11 15 1013.1 0 19.2 26.8 41.0 107.5 100.4 344.7
08/05 04:00 8.8 93 8.1 7.7 13 24 1013.1 0 18.8 26.5 40.3 105.7 98.0 336.4
08/05 03:50 8.8 93 8.1 7.7 13 17 1013.1 0 18.8 26.5 40.3 105.7 98.0 336.4
08/05 03:40 8.7 92 7.96 7.5 11 13 1013.1 0 18.5 26.3 39.7 104.2 96.2 330.0
08/05 03:30 8.8 91 7.92 7.4 11 17 1013.1 0 18.4 26.2 39.5 103.6 95.5 327.6
08/05 03:20 8.9 90 7.89 7.4 11 15 1013.1 0 18.3 26.2 39.3 103.2 95.0 325.8
08/05 03:10 9 89 7.85 7.3 15 22 1013.1 0 18.2 26.1 39.1 102.6 94.3 323.4
08/05 03:00 9.1 88 7.81 7.2 15 24 1013.1 0 18.1 26.0 38.9 102.0 93.6 321.1
08/05 02:50 9.3 86 7.73 7.1 17 22 1013.1 0 17.9 25.8 38.5 100.9 92.3 316.4
08/05 02:40 9.4 84 7.6 6.8 13 17 1013.1 0 17.6 25.5 37.9 99.3 90.4 309.9
08/05 02:30 9.7 83 7.65 7 15 24 1013.1 0 17.7 25.5 37.9 99.5 90.7 311.0
08/05 02:20 10.2 81 7.71 7.1 17 24 1013.1 0 17.9 25.5 38.0 99.5 90.9 311.9
08/05 02:10 10.3 80 7.66 7 13 20 1013.1 0 17.7 25.4 37.7 98.8 90.1 309.1
08/05 02:00 10.5 79 7.66 7 13 26 1013.1 0 17.7 25.3 37.6 98.6 89.9 308.4
08/05 01:50 10.5 78 7.57 6.8 19 24 1013.1 0 17.5 25.2 37.2 97.6 88.7 304.2
08/05 01:40 10.5 78 7.57 6.8 9 15 1013.1 0 17.5 25.2 37.2 97.6 88.7 304.2
08/05 01:30 10.6 77 7.52 6.7 13 22 1013.1 0 17.4 25.1 37.0 96.9 87.9 301.4
08/05 01:20 10.6 77 7.52 6.7 11 17 1013.1 0 17.4 25.1 37.0 96.9 87.9 301.4
08/05 01:10 10.7 76 7.47 6.6 13 19 1013.1 0 17.3 24.9 36.7 96.3 87.2 298.7
08/05 01:00 10.6 76 7.42 6.6 11 20 1013.1 0 17.2 24.9 36.6 95.9 86.6 296.8
08/05 00:50 10.7 75 7.37 6.5 13 20 1013.1 0 17.1 24.8 36.3 95.2 85.8 294.1
08/05 00:40 10.7 75 7.37 6.5 11 17 1013.1 0 17.1 24.8 36.3 95.2 85.8 294.1
08/05 00:30 10.7 75 7.37 6.5 11 20 1013.1 0 17.1 24.8 36.3 95.2 85.8 294.1
08/05 00:20 10.6 76 7.42 6.6 11 17 1013.1 0 17.2 24.9 36.6 95.9 86.6 296.8
08/05 00:10 10.7 75 7.37 6.5 9 11 1013.1 0 17.1 24.8 36.3 95.2 85.8 294.1
08/05 00:00 10.6 75 7.32 6.4 9 20 1013.1 0 17.0 24.7 36.2 94.8 85.3 292.2
07/05 23:50 10.6 75 7.32 6.4 13 17 1013.1 0 17.0 24.7 36.2 94.8 85.3 292.2
07/05 23:40 10.6 76 7.42 6.6 13 17 1013.1 0 17.2 24.9 36.6 95.9 86.6 296.8
07/05 23:30 10.6 76 7.42 6.6 11 20 1013.1 0 17.2 24.9 36.6 95.9 86.6 296.8
07/05 23:20 10.6 75 7.32 6.4 9 13 1013.1 0 17.0 24.7 36.2 94.8 85.3 292.2
07/05 23:10 10.6 75 7.32 6.4 7 9 1013.1 0 17.0 24.7 36.2 94.8 85.3 292.2
07/05 23:00 10.6 75 7.32 6.4 11 15 1013.1 0 17.0 24.7 36.2 94.8 85.3 292.2
07/05 22:50 10.5 76 7.37 6.5 9 13 1013.1 0 17.1 24.8 36.4 95.5 86.1 294.9
07/05 22:40 10.5 76 7.37 6.5 7 7 1013.1 0 17.1 24.8 36.4 95.5 86.1 294.9
07/05 22:30 10.4 77 7.42 6.5 7 15 1013.1 0 17.2 24.9 36.7 96.1 86.8 297.6
07/05 22:20 10.4 77 7.42 6.5 7 7 1013.1 0 17.2 24.9 36.7 96.1 86.8 297.6
07/05 22:10 10.3 77 7.38 6.5 6 7 1013.1 0 17.1 24.9 36.6 95.8 86.4 296.1
07/05 22:00 10.3 78 7.47 6.6 7 13 1013.1 0 17.3 25.1 36.9 96.8 87.6 300.3
07/05 21:50 10.4 78 7.52 6.7 7 9 1013.1 0 17.4 25.1 37.1 97.2 88.2 302.2
07/05 21:40 10.5 77 7.47 6.6 9 11 1013.1 0 17.3 25.0 36.8 96.5 87.4 299.5
07/05 21:30 10.6 76 7.42 6.6 7 11 1013.1 0 17.2 24.9 36.6 95.9 86.6 296.8
07/05 21:20 10.6 76 7.42 6.6 7 11 1013.1 0 17.2 24.9 36.6 95.9 86.6 296.8
07/05 21:10 10.6 75 7.32 6.4 7 11 1013.1 0 17.0 24.7 36.2 94.8 85.3 292.2
07/05 21:00 10.7 75 7.37 6.5 7 11 1013.1 0 17.1 24.8 36.3 95.2 85.8 294.1
07/05 20:50 10.7 74 7.27 6.3 7 7 1013.1 0 16.9 24.6 36.0 94.1 84.5 289.5
07/05 20:40 10.8 74 7.32 6.4 9 11 1013.1 0 17.0 24.7 36.1 94.6 85.1 291.5
07/05 20:30 10.7 75 7.37 6.5 9 15 1013.1 0 17.1 24.8 36.3 95.2 85.8 294.1
07/05 20:20 10.5 76 7.37 6.5 9 13 1013.1 0 17.1 24.8 36.4 95.5 86.1 294.9
07/05 20:10 10.5 77 7.47 6.6 9 11 1013.1 0 17.3 25.0 36.8 96.5 87.4 299.5
07/05 20:00 10.4 77 7.42 6.5 7 11 1013.1 0 17.2 24.9 36.7 96.1 86.8 297.6

Last Refresh: 08-May-2026 12:08:31

Bureau of Meteorology